Date,TemperatureHighF,TemperatureAvgF,TemperatureLowF,DewpointHighF,DewpointAvgF,DewpointLowF,HumidityHigh,HumidityAvg,HumidityLow,PressureMaxIn,PressureMinIn,WindSpeedMaxMPH,WindSpeedAvgMPH,GustSpeedMaxMPH,PrecipitationSumIn
2013-1-1,29,18,13,20,15,10,93,86,66,30.51,30.39,8,2,9,0.00
2013-1-2,18,16,15,15,13,12,92,89,86,30.49,30.37,3,1,4,0.00
2013-1-3,28,16,11,16,12,8,89,82,60,30.37,30.22,5,1,7,0.00
2013-1-4,48,26,17,25,17,12,85,70,39,30.35,30.23,7,2,8,0.00
2013-1-5,28,22,16,25,19,13,92,88,79,30.26,30.16,3,0,3,0.00
2013-1-6,50,30,20,32,25,18,92,80,51,30.19,30.08,7,2,10,0.00
2013-1-7,54,42,34,39,33,26,82,68,51,30.15,30.00,14,5,14,0.29
2013-1-8,55,45,38,39,35,32,80,70,53,30.16,29.97,13,4,13,0.00
2013-1-9,49,39,28,34,29,21,79,66,47,29.98,29.75,19,6,19,0.00
2013-1-10,36,28,22,28,22,17,90,76,54,29.99,29.89,7,2,11,0.00
2013-1-11,35,24,17,22,17,12,84,75,56,30.20,29.98,9,2,12,0.00
2013-1-12,36,18,11,20,11,6,83,74,45,30.28,30.19,6,2,7,0.00
2013-1-13,35,18,7,16,10,2,84,72,42,30.38,30.26,5,1,6,0.00
2013-1-14,44,25,12,25,14,6,81,65,36,30.42,30.29,9,2,9,0.00
2013-1-15,54,30,19,27,20,13,80,67,34,30.55,30.40,8,2,9,0.00
2013-1-16,60,35,22,25,20,15,75,58,25,30.56,30.44,8,2,8,0.00
2013-1-17,57,36,25,25,20,17,72,55,27,30.48,30.34,9,2,11,0.00
2013-1-18,51,35,25,25,19,16,69,55,34,30.37,30.29,8,2,10,0.00
2013-1-19,61,36,23,27,20,16,74,57,22,30.38,30.29,8,2,8,0.00
2013-1-20,49,31,21,26,20,14,86,65,37,30.42,30.31,5,1,5,0.00
2013-1-21,48,27,17,26,19,12,88,73,33,30.32,30.18,9,1,9,0.00
2013-1-22,28,21,17,23,18,14,91,89,82,30.21,30.06,7,1,7,0.00
2013-1-23,34,27,23,30,24,20,91,89,82,30.12,29.89,7,2,9,0.00
2013-1-24,54,37,29,39,32,27,93,83,48,30.18,30.09,5,1,5,0.00
2013-1-25,48,43,36,43,39,33,94,85,77,30.13,29.94,9,3,9,0.41
2013-1-26,44,37,30,36,27,24,90,68,49,30.02,29.91,14,3,14,0.00
2013-1-27,40,33,27,28,25,23,84,73,52,30.07,30.00,12,2,12,0.00
2013-1-28,38,36,32,31,29,26,86,76,69,30.09,29.99,13,4,16,0.00
2013-1-29,46,40,37,34,32,30,77,72,63,30.36,30.08,20,6,20,0.00
2013-1-30,50,44,37,36,34,30,80,68,60,30.40,30.35,14,4,17,0.00
2013-1-31,50,38,29,37,32,27,92,78,55,30.37,30.27,7,1,7,0.00